createdAt,value
2019-03-23T00:02:12.693Z,82.59
2019-03-23T00:08:17.401Z,82.83
2019-03-23T00:14:22.044Z,82.14
2019-03-23T00:20:26.602Z,82.41
2019-03-23T00:26:31.223Z,82.68
2019-03-23T00:32:35.946Z,82.81
2019-03-23T00:38:40.504Z,83.10
2019-03-23T00:44:45.080Z,83.08
2019-03-23T00:50:49.628Z,83.95
2019-03-23T00:56:54.185Z,84.26
2019-03-23T01:02:58.751Z,83.85
2019-03-23T01:09:06.660Z,82.77
2019-03-23T01:15:13.926Z,82.96
2019-03-23T01:21:18.534Z,82.19
2019-03-23T01:27:23.089Z,83.51
2019-03-23T01:33:27.649Z,83.54
2019-03-23T01:39:32.201Z,83.31
2019-03-23T01:45:36.827Z,84.16
2019-03-23T01:51:41.453Z,84.60
2019-03-23T01:57:46.009Z,84.52
2019-03-23T02:03:50.646Z,85.43
2019-03-23T02:09:55.200Z,86.18
2019-03-23T02:15:59.827Z,86.35
2019-03-23T02:22:04.453Z,85.34
2019-03-23T02:28:09.021Z,85.76
2019-03-23T02:34:13.577Z,86.72
2019-03-23T02:40:18.149Z,87.13
2019-03-23T02:46:22.709Z,86.12
2019-03-23T02:52:27.268Z,87.21
2019-03-23T02:58:31.844Z,86.87
2019-03-23T03:04:36.407Z,86.75
2019-03-23T03:10:42.196Z,87.64
2019-03-23T03:16:46.746Z,88.54
2019-03-23T03:22:51.309Z,88.33
2019-03-23T03:28:55.849Z,88.16
2019-03-23T03:35:00.743Z,88.23
2019-03-23T03:41:05.531Z,87.91
2019-03-23T03:47:10.092Z,87.46
2019-03-23T03:53:14.640Z,87.33
2019-03-23T03:59:19.208Z,88.18
2019-03-23T04:05:23.788Z,86.99
2019-03-23T04:11:28.320Z,87.53
2019-03-23T04:17:32.883Z,87.74
2019-03-23T04:23:37.434Z,87.48
2019-03-23T04:29:41.981Z,86.52
2019-03-23T04:35:46.547Z,87.33
2019-03-23T04:41:51.169Z,88.99
2019-03-23T04:47:55.719Z,89.70
2019-03-23T04:54:00.273Z,89.63
2019-03-23T05:00:09.044Z,90.66
2019-03-23T05:06:13.610Z,90.66
2019-03-23T05:12:18.161Z,90.79
2019-03-23T05:18:22.716Z,91.16
2019-03-23T05:24:27.269Z,91.41
2019-03-23T05:30:31.826Z,89.20
2019-03-23T05:36:36.488Z,88.32
2019-03-23T05:42:41.045Z,88.62
2019-03-23T05:48:45.607Z,88.88
2019-03-23T05:54:50.168Z,89.35
2019-03-23T06:00:54.724Z,88.52
2019-03-23T06:06:59.283Z,89.60
2019-03-23T06:13:03.909Z,89.89
2019-03-23T06:19:08.465Z,89.23
2019-03-23T06:25:13.044Z,89.65
2019-03-23T06:31:17.592Z,89.72
2019-03-23T06:37:22.142Z,89.65
2019-03-23T06:43:26.696Z,89.39
2019-03-23T06:49:31.253Z,87.05
2019-03-23T06:55:36.082Z,84.40
2019-03-23T07:01:40.637Z,84.55
2019-03-23T07:07:45.189Z,87.64
2019-03-23T07:13:49.757Z,86.03
2019-03-23T07:19:54.323Z,73.33
2019-03-23T07:25:58.895Z,63.14
2019-03-23T07:32:05.947Z,54.31
2019-03-23T07:38:09.757Z,50.84
2019-03-23T07:44:14.323Z,53.59
2019-03-23T07:50:18.963Z,59.21
2019-03-23T07:56:23.534Z,63.16
2019-03-23T08:02:28.105Z,65.15
2019-03-23T08:08:32.680Z,66.01
2019-03-23T08:14:37.322Z,65.88
2019-03-23T08:20:41.962Z,66.47
2019-03-23T08:26:46.545Z,65.18
2019-03-23T08:32:51.277Z,61.29
2019-03-23T08:38:55.915Z,62.83
2019-03-23T08:45:00.501Z,60.90
2019-03-23T08:51:05.217Z,56.26
2019-03-23T08:57:09.778Z,53.01
2019-03-23T09:03:14.429Z,50.83
2019-03-23T09:09:18.994Z,48.86
2019-03-23T09:15:23.645Z,44.48
2019-03-23T09:21:28.223Z,39.71
2019-03-23T09:27:32.866Z,37.49
2019-03-23T09:33:37.457Z,35.30
2019-03-23T09:39:42.025Z,36.53
2019-03-23T09:45:46.606Z,44.36
2019-03-23T09:51:51.171Z,47.96
2019-03-23T09:57:55.751Z,47.62
2019-03-23T10:04:00.335Z,49.91
2019-03-23T10:10:06.412Z,47.90
2019-03-23T10:16:11.003Z,48.21
2019-03-23T10:22:15.593Z,51.36
2019-03-23T10:28:20.158Z,53.27
2019-03-23T10:34:24.722Z,52.33
2019-03-23T10:40:32.767Z,52.30
2019-03-23T10:46:35.586Z,47.33
2019-03-23T10:52:40.255Z,44.62
2019-03-23T10:58:44.835Z,43.28
2019-03-23T11:04:49.564Z,42.14
2019-03-23T11:10:54.135Z,44.83
2019-03-23T11:16:58.705Z,44.87
2019-03-23T11:23:03.265Z,46.50
2019-03-23T11:29:08.526Z,50.87
2019-03-23T11:35:13.669Z,54.53
2019-03-23T11:41:18.316Z,57.04
2019-03-23T11:47:22.931Z,59.98
2019-03-23T11:53:27.528Z,60.56
2019-03-23T11:59:32.108Z,61.66
2019-03-23T12:05:36.677Z,62.54
2019-03-23T12:11:41.258Z,59.52
2019-03-23T12:17:45.996Z,62.36
2019-03-23T12:23:50.561Z,61.66
2019-03-23T12:29:55.153Z,61.62
2019-03-23T12:35:59.825Z,62.69
2019-03-23T12:42:04.404Z,60.17
2019-03-23T12:48:08.979Z,59.71
2019-03-23T12:54:13.549Z,59.92
2019-03-23T13:00:18.545Z,61.37
2019-03-23T13:06:23.136Z,60.78
2019-03-23T13:12:27.729Z,58.60
2019-03-23T13:18:32.446Z,57.30
2019-03-23T13:24:37.025Z,60.74
2019-03-23T13:30:41.603Z,64.90
2019-03-23T13:36:46.189Z,65.23
2019-03-23T13:42:50.758Z,65.08
2019-03-23T13:48:55.402Z,61.33
2019-03-23T13:55:00.167Z,61.31
2019-03-23T14:01:04.879Z,57.36
2019-03-23T14:07:10.355Z,52.74
2019-03-23T14:13:14.931Z,47.68
2019-03-23T14:19:19.652Z,47.42
2019-03-23T14:25:24.218Z,44.30
2019-03-23T14:31:28.800Z,44.33
2019-03-23T14:37:33.367Z,44.66
2019-03-23T14:43:37.930Z,42.77
2019-03-23T14:49:42.523Z,41.08
2019-03-23T14:55:47.319Z,41.75
2019-03-23T15:01:51.976Z,39.69
2019-03-23T15:07:56.629Z,38.83
2019-03-23T15:14:01.195Z,37.14
2019-03-23T15:20:07.830Z,38.30
2019-03-23T15:26:12.519Z,37.72
2019-03-23T15:32:17.096Z,38.44
2019-03-23T15:38:21.670Z,41.00
2019-03-23T15:44:26.248Z,41.53
2019-03-23T15:50:30.829Z,40.72
2019-03-23T15:56:35.586Z,40.77
2019-03-23T16:02:42.904Z,41.61
2019-03-23T16:08:47.687Z,41.05
2019-03-23T16:14:52.271Z,43.00
2019-03-23T16:20:56.893Z,45.26
2019-03-23T16:27:01.569Z,49.74
2019-03-23T16:33:06.325Z,54.48
2019-03-23T16:39:10.965Z,57.44
2019-03-23T16:45:16.356Z,58.62
2019-03-23T16:51:20.952Z,60.84
2019-03-23T16:57:25.735Z,62.25
2019-03-23T17:03:30.316Z,63.76
2019-03-23T17:09:34.876Z,64.03
2019-03-23T17:15:39.435Z,65.07
2019-03-23T17:21:44.166Z,66.17
2019-03-23T17:27:48.745Z,66.83
2019-03-23T17:33:53.400Z,67.60
2019-03-23T17:39:57.953Z,68.72
2019-03-23T17:46:02.673Z,69.09
2019-03-23T17:52:07.352Z,69.30
2019-03-23T17:58:11.940Z,70.27
2019-03-23T18:04:16.580Z,70.62
2019-03-23T18:10:21.236Z,71.21
2019-03-23T18:16:25.952Z,72.00
2019-03-23T18:22:30.686Z,72.51
2019-03-23T18:28:35.315Z,72.69
2019-03-23T18:34:39.896Z,72.78
2019-03-23T18:40:44.650Z,73.63
2019-03-23T18:46:49.457Z,73.71
2019-03-23T18:52:54.016Z,73.56
2019-03-23T18:58:58.587Z,74.17
2019-03-23T19:05:03.254Z,74.94
2019-03-23T19:11:07.827Z,75.57
2019-03-23T19:17:12.408Z,75.08
2019-03-23T19:23:16.982Z,75.55
2019-03-23T19:29:21.567Z,75.19
2019-03-23T19:35:26.308Z,75.90
2019-03-23T19:41:30.994Z,76.42
2019-03-23T19:47:35.652Z,76.42
2019-03-23T19:53:40.409Z,77.24
2019-03-23T19:59:44.992Z,77.15
2019-03-23T20:05:49.640Z,77.86
2019-03-23T20:11:54.225Z,79.49
2019-03-23T20:17:58.819Z,80.86
2019-03-23T20:24:03.397Z,81.45
2019-03-23T20:30:11.487Z,82.80
2019-03-23T20:36:16.102Z,83.53
2019-03-23T20:42:20.760Z,83.84
2019-03-23T20:48:25.689Z,84.52
2019-03-23T20:54:30.403Z,86.05
2019-03-23T21:00:35.010Z,86.78
2019-03-23T21:06:39.591Z,86.54
2019-03-23T21:12:44.181Z,86.98
2019-03-23T21:18:48.761Z,87.61
2019-03-23T21:24:53.325Z,88.03
2019-03-23T21:30:57.897Z,87.39
2019-03-23T21:37:02.535Z,87.34
2019-03-23T21:43:07.103Z,88.28
2019-03-23T21:49:11.670Z,88.53
2019-03-23T21:55:16.478Z,86.47
2019-03-23T22:01:21.037Z,85.83
2019-03-23T22:07:25.598Z,84.86
2019-03-23T22:13:30.173Z,84.37
2019-03-23T22:19:34.810Z,84.81
2019-03-23T22:25:39.434Z,84.78
2019-03-23T22:31:44.006Z,83.33
2019-03-23T22:37:48.570Z,84.09
2019-03-23T22:43:53.112Z,83.64
2019-03-23T22:49:57.682Z,83.51
2019-03-23T22:56:02.317Z,82.49
2019-03-23T23:02:06.887Z,82.64
2019-03-23T23:08:11.470Z,82.06
2019-03-23T23:14:16.011Z,81.90
2019-03-23T23:20:20.596Z,81.18
2019-03-23T23:26:25.249Z,81.34
2019-03-23T23:32:29.796Z,82.10
2019-03-23T23:38:34.365Z,81.58
2019-03-23T23:44:38.918Z,82.16
2019-03-23T23:50:43.470Z,83.30
2019-03-23T23:56:48.153Z,83.17
